Terminal Aerodrome Forecast
Issued by NWS

Home | Current Version | Previous Version | Graphics & Text | Print | Product List | Glossary On
Versions: 1 2 3 4 5 6 7 8 9 10 11 12 13 14 15 16 17 18 19
284
FTUS41 KCLE 110045 AAA
TAFFDY
TAF AMD
KFDY 110045Z 1101/1124 27015G25KT P6SM SCT025 OVC045
      TEMPO 1101/1104 1SM -SHSN OVC018
     FM110600 29010KT P6SM SCT040
     FM111600 28008KT P6SM BKN035=

USA.gov is the U.S. government's official web portal to all federal, state and local government web resources and services.